sensor_id;sensor_type;location;lat;lon;timestamp;P1;durP1;ratioP1;P2;durP2;ratioP2
19519;SDS011;9904;52.246;20.898;2023-01-05T00:00:49;26.13;;;15.17;;
19519;SDS011;9904;52.246;20.898;2023-01-05T00:03:15;26.70;;;15.50;;
19519;SDS011;9904;52.246;20.898;2023-01-05T00:05:42;26.47;;;15.30;;
19519;SDS011;9904;52.246;20.898;2023-01-05T00:08:09;23.57;;;14.73;;
19519;SDS011;9904;52.246;20.898;2023-01-05T00:10:36;24.27;;;15.33;;
19519;SDS011;9904;52.246;20.898;2023-01-05T00:13:21;26.03;;;14.43;;
19519;SDS011;9904;52.246;20.898;2023-01-05T00:16:13;27.23;;;14.50;;
19519;SDS011;9904;52.246;20.898;2023-01-05T00:18:59;23.77;;;14.53;;
19519;SDS011;9904;52.246;20.898;2023-01-05T00:21:44;22.27;;;14.80;;
19519;SDS011;9904;52.246;20.898;2023-01-05T00:24:29;23.93;;;13.87;;
19519;SDS011;9904;52.246;20.898;2023-01-05T00:26:56;22.97;;;13.40;;
19519;SDS011;9904;52.246;20.898;2023-01-05T00:29:23;25.13;;;13.60;;
19519;SDS011;9904;52.246;20.898;2023-01-05T00:31:50;21.03;;;12.93;;
19519;SDS011;9904;52.246;20.898;2023-01-05T00:34:16;22.83;;;13.77;;
19519;SDS011;9904;52.246;20.898;2023-01-05T00:36:43;19.60;;;12.23;;
19519;SDS011;9904;52.246;20.898;2023-01-05T00:39:09;20.40;;;12.43;;
19519;SDS011;9904;52.246;20.898;2023-01-05T00:41:36;17.53;;;11.07;;
19519;SDS011;9904;52.246;20.898;2023-01-05T00:44:02;20.90;;;11.47;;
19519;SDS011;9904;52.246;20.898;2023-01-05T00:46:29;16.77;;;11.23;;
19519;SDS011;9904;52.246;20.898;2023-01-05T00:48:55;17.27;;;11.07;;
19519;SDS011;9904;52.246;20.898;2023-01-05T00:51:22;16.57;;;10.53;;
19519;SDS011;9904;52.246;20.898;2023-01-05T00:53:48;14.03;;;9.90;;
19519;SDS011;9904;52.246;20.898;2023-01-05T00:56:15;17.77;;;9.27;;
19519;SDS011;9904;52.246;20.898;2023-01-05T00:58:41;14.43;;;9.30;;
19519;SDS011;9904;52.246;20.898;2023-01-05T01:01:11;15.00;;;8.87;;
19519;SDS011;9904;52.246;20.898;2023-01-05T01:03:38;13.20;;;8.23;;
19519;SDS011;9904;52.246;20.898;2023-01-05T01:06:05;13.43;;;8.30;;
19519;SDS011;9904;52.246;20.898;2023-01-05T01:08:31;12.73;;;8.33;;
19519;SDS011;9904;52.246;20.898;2023-01-05T01:11:02;13.97;;;8.23;;
19519;SDS011;9904;52.246;20.898;2023-01-05T01:13:32;13.73;;;8.10;;
19519;SDS011;9904;52.246;20.898;2023-01-05T01:16:11;12.27;;;7.47;;
19519;SDS011;9904;52.246;20.898;2023-01-05T01:18:39;16.37;;;7.00;;
19519;SDS011;9904;52.246;20.898;2023-01-05T01:21:06;12.43;;;7.27;;
19519;SDS011;9904;52.246;20.898;2023-01-05T01:23:32;13.20;;;7.40;;
19519;SDS011;9904;52.246;20.898;2023-01-05T01:26:06;12.30;;;7.90;;
19519;SDS011;9904;52.246;20.898;2023-01-05T01:28:34;13.80;;;7.67;;
19519;SDS011;9904;52.246;20.898;2023-01-05T01:31:00;12.70;;;7.30;;
19519;SDS011;9904;52.246;20.898;2023-01-05T01:33:27;10.90;;;7.40;;
19519;SDS011;9904;52.246;20.898;2023-01-05T01:35:54;15.87;;;7.97;;
19519;SDS011;9904;52.246;20.898;2023-01-05T01:38:21;16.57;;;7.90;;
19519;SDS011;9904;52.246;20.898;2023-01-05T01:40:48;14.40;;;8.13;;
19519;SDS011;9904;52.246;20.898;2023-01-05T01:43:17;13.83;;;7.87;;
19519;SDS011;9904;52.246;20.898;2023-01-05T01:45:45;12.60;;;8.10;;
19519;SDS011;9904;52.246;20.898;2023-01-05T01:48:13;12.27;;;7.63;;
19519;SDS011;9904;52.246;20.898;2023-01-05T01:50:43;13.97;;;8.40;;
19519;SDS011;9904;52.246;20.898;2023-01-05T01:53:14;12.63;;;8.13;;
19519;SDS011;9904;52.246;20.898;2023-01-05T01:55:46;14.93;;;8.60;;
19519;SDS011;9904;52.246;20.898;2023-01-05T01:58:14;11.13;;;7.80;;
19519;SDS011;9904;52.246;20.898;2023-01-05T02:00:42;16.53;;;8.17;;
19519;SDS011;9904;52.246;20.898;2023-01-05T02:03:09;13.20;;;8.30;;
19519;SDS011;9904;52.246;20.898;2023-01-05T02:05:35;13.17;;;8.30;;
19519;SDS011;9904;52.246;20.898;2023-01-05T02:08:05;11.60;;;7.40;;
19519;SDS011;9904;52.246;20.898;2023-01-05T02:10:42;11.20;;;7.03;;
19519;SDS011;9904;52.246;20.898;2023-01-05T02:13:20;9.33;;;7.00;;
19519;SDS011;9904;52.246;20.898;2023-01-05T02:16:02;10.20;;;6.77;;
19519;SDS011;9904;52.246;20.898;2023-01-05T02:18:33;10.20;;;6.80;;
19519;SDS011;9904;52.246;20.898;2023-01-05T02:21:20;9.10;;;6.33;;
19519;SDS011;9904;52.246;20.898;2023-01-05T02:26:57;13.83;;;6.73;;
19519;SDS011;9904;52.246;20.898;2023-01-05T02:32:15;9.53;;;6.60;;
19519;SDS011;9904;52.246;20.898;2023-01-05T02:40:12;9.73;;;5.50;;
19519;SDS011;9904;52.246;20.898;2023-01-05T02:42:45;9.33;;;6.33;;
19519;SDS011;9904;52.246;20.898;2023-01-05T02:45:13;8.33;;;5.80;;
19519;SDS011;9904;52.246;20.898;2023-01-05T02:47:41;8.30;;;5.60;;
19519;SDS011;9904;52.246;20.898;2023-01-05T02:50:20;9.37;;;5.77;;
19519;SDS011;9904;52.246;20.898;2023-01-05T02:52:57;8.83;;;5.90;;
19519;SDS011;9904;52.246;20.898;2023-01-05T02:55:33;8.10;;;5.50;;
19519;SDS011;9904;52.246;20.898;2023-01-05T02:58:13;7.60;;;5.30;;
19519;SDS011;9904;52.246;20.898;2023-01-05T03:00:53;7.33;;;5.57;;
19519;SDS011;9904;52.246;20.898;2023-01-05T03:03:24;9.87;;;5.77;;
19519;SDS011;9904;52.246;20.898;2023-01-05T03:06:08;8.13;;;5.30;;
19519;SDS011;9904;52.246;20.898;2023-01-05T03:08:38;10.40;;;5.70;;
19519;SDS011;9904;52.246;20.898;2023-01-05T03:11:08;10.30;;;6.20;;
19519;SDS011;9904;52.246;20.898;2023-01-05T03:14:02;7.47;;;5.53;;
19519;SDS011;9904;52.246;20.898;2023-01-05T03:16:34;6.87;;;5.50;;
19519;SDS011;9904;52.246;20.898;2023-01-05T03:19:02;10.07;;;5.57;;
19519;SDS011;9904;52.246;20.898;2023-01-05T03:21:48;7.87;;;5.00;;
19519;SDS011;9904;52.246;20.898;2023-01-05T03:24:35;9.00;;;4.80;;
19519;SDS011;9904;52.246;20.898;2023-01-05T03:27:21;6.87;;;4.70;;
19519;SDS011;9904;52.246;20.898;2023-01-05T03:30:07;7.33;;;5.03;;
19519;SDS011;9904;52.246;20.898;2023-01-05T03:32:54;8.27;;;4.83;;
19519;SDS011;9904;52.246;20.898;2023-01-05T03:35:49;11.10;;;5.63;;
19519;SDS011;9904;52.246;20.898;2023-01-05T03:41:04;8.03;;;4.93;;
19519;SDS011;9904;52.246;20.898;2023-01-05T03:43:35;8.57;;;5.10;;
19519;SDS011;9904;52.246;20.898;2023-01-05T03:46:08;8.87;;;4.50;;
19519;SDS011;9904;52.246;20.898;2023-01-05T03:48:35;6.00;;;4.03;;
19519;SDS011;9904;52.246;20.898;2023-01-05T03:51:03;5.07;;;3.60;;
19519;SDS011;9904;52.246;20.898;2023-01-05T03:53:29;6.53;;;3.37;;
19519;SDS011;9904;52.246;20.898;2023-01-05T03:55:56;6.27;;;3.23;;
19519;SDS011;9904;52.246;20.898;2023-01-05T03:58:23;5.00;;;3.23;;
19519;SDS011;9904;52.246;20.898;2023-01-05T04:00:49;4.37;;;2.87;;
19519;SDS011;9904;52.246;20.898;2023-01-05T04:03:16;5.20;;;3.47;;
19519;SDS011;9904;52.246;20.898;2023-01-05T04:05:42;4.07;;;3.10;;
19519;SDS011;9904;52.246;20.898;2023-01-05T04:08:09;4.93;;;3.10;;
19519;SDS011;9904;52.246;20.898;2023-01-05T04:10:35;3.93;;;2.87;;
19519;SDS011;9904;52.246;20.898;2023-01-05T04:13:02;5.47;;;3.50;;
19519;SDS011;9904;52.246;20.898;2023-01-05T04:15:29;5.00;;;3.27;;
19519;SDS011;9904;52.246;20.898;2023-01-05T04:17:55;5.80;;;2.90;;
19519;SDS011;9904;52.246;20.898;2023-01-05T04:20:22;10.00;;;3.33;;
19519;SDS011;9904;52.246;20.898;2023-01-05T04:22:49;5.40;;;3.27;;
19519;SDS011;9904;52.246;20.898;2023-01-05T04:25:15;5.73;;;3.37;;
19519;SDS011;9904;52.246;20.898;2023-01-05T04:27:42;3.93;;;3.20;;
19519;SDS011;9904;52.246;20.898;2023-01-05T04:30:09;5.70;;;3.10;;
19519;SDS011;9904;52.246;20.898;2023-01-05T04:32:35;6.13;;;3.03;;
19519;SDS011;9904;52.246;20.898;2023-01-05T04:35:02;4.30;;;2.87;;
19519;SDS011;9904;52.246;20.898;2023-01-05T04:37:36;5.10;;;2.80;;
19519;SDS011;9904;52.246;20.898;2023-01-05T04:40:04;4.57;;;3.13;;
19519;SDS011;9904;52.246;20.898;2023-01-05T04:42:31;6.23;;;3.13;;
19519;SDS011;9904;52.246;20.898;2023-01-05T04:44:57;5.10;;;2.70;;
19519;SDS011;9904;52.246;20.898;2023-01-05T04:47:24;7.30;;;3.20;;
19519;SDS011;9904;52.246;20.898;2023-01-05T04:49:51;8.20;;;3.60;;
19519;SDS011;9904;52.246;20.898;2023-01-05T04:52:17;8.00;;;4.13;;
19519;SDS011;9904;52.246;20.898;2023-01-05T04:54:44;5.80;;;4.00;;
19519;SDS011;9904;52.246;20.898;2023-01-05T04:57:11;8.97;;;4.60;;
19519;SDS011;9904;52.246;20.898;2023-01-05T04:59:37;8.77;;;4.93;;
19519;SDS011;9904;52.246;20.898;2023-01-05T05:02:04;7.97;;;5.10;;
19519;SDS011;9904;52.246;20.898;2023-01-05T05:04:30;6.83;;;4.60;;
19519;SDS011;9904;52.246;20.898;2023-01-05T05:06:57;6.60;;;4.90;;
19519;SDS011;9904;52.246;20.898;2023-01-05T05:09:24;6.93;;;5.27;;
19519;SDS011;9904;52.246;20.898;2023-01-05T05:11:50;7.83;;;5.43;;
19519;SDS011;9904;52.246;20.898;2023-01-05T05:14:17;7.97;;;6.20;;
19519;SDS011;9904;52.246;20.898;2023-01-05T05:16:44;7.70;;;5.77;;
19519;SDS011;9904;52.246;20.898;2023-01-05T05:19:11;8.63;;;5.93;;
19519;SDS011;9904;52.246;20.898;2023-01-05T05:21:37;8.40;;;5.70;;
19519;SDS011;9904;52.246;20.898;2023-01-05T05:24:04;11.23;;;6.60;;
19519;SDS011;9904;52.246;20.898;2023-01-05T05:26:31;8.53;;;5.47;;
19519;SDS011;9904;52.246;20.898;2023-01-05T05:28:57;8.17;;;5.50;;
19519;SDS011;9904;52.246;20.898;2023-01-05T05:31:25;7.90;;;5.07;;
19519;SDS011;9904;52.246;20.898;2023-01-05T05:33:51;8.90;;;5.00;;
19519;SDS011;9904;52.246;20.898;2023-01-05T05:36:18;7.17;;;4.70;;
19519;SDS011;9904;52.246;20.898;2023-01-05T05:38:45;7.83;;;5.00;;
19519;SDS011;9904;52.246;20.898;2023-01-05T05:41:12;5.70;;;4.00;;
19519;SDS011;9904;52.246;20.898;2023-01-05T05:43:38;5.47;;;3.50;;
19519;SDS011;9904;52.246;20.898;2023-01-05T05:46:05;4.77;;;3.20;;
19519;SDS011;9904;52.246;20.898;2023-01-05T05:48:32;6.30;;;3.30;;
19519;SDS011;9904;52.246;20.898;2023-01-05T05:50:58;5.20;;;2.80;;
19519;SDS011;9904;52.246;20.898;2023-01-05T05:53:25;3.97;;;2.40;;
19519;SDS011;9904;52.246;20.898;2023-01-05T05:55:52;6.53;;;2.10;;
19519;SDS011;9904;52.246;20.898;2023-01-05T05:58:18;6.73;;;1.90;;
19519;SDS011;9904;52.246;20.898;2023-01-05T06:00:45;3.43;;;2.03;;
19519;SDS011;9904;52.246;20.898;2023-01-05T06:03:12;7.00;;;1.83;;
19519;SDS011;9904;52.246;20.898;2023-01-05T06:05:39;3.40;;;1.57;;
19519;SDS011;9904;52.246;20.898;2023-01-05T06:08:05;3.23;;;1.97;;
19519;SDS011;9904;52.246;20.898;2023-01-05T06:10:32;5.10;;;1.90;;
19519;SDS011;9904;52.246;20.898;2023-01-05T06:13:00;4.10;;;1.77;;
19519;SDS011;9904;52.246;20.898;2023-01-05T06:15:26;3.93;;;1.70;;
19519;SDS011;9904;52.246;20.898;2023-01-05T06:17:53;3.87;;;1.70;;
19519;SDS011;9904;52.246;20.898;2023-01-05T06:20:20;3.87;;;1.53;;
19519;SDS011;9904;52.246;20.898;2023-01-05T06:22:47;4.60;;;2.00;;
19519;SDS011;9904;52.246;20.898;2023-01-05T06:25:13;4.73;;;1.90;;
19519;SDS011;9904;52.246;20.898;2023-01-05T06:27:40;5.70;;;2.10;;
19519;SDS011;9904;52.246;20.898;2023-01-05T06:30:07;6.03;;;2.20;;
19519;SDS011;9904;52.246;20.898;2023-01-05T06:32:34;6.87;;;1.90;;
19519;SDS011;9904;52.246;20.898;2023-01-05T06:35:01;6.10;;;2.17;;
19519;SDS011;9904;52.246;20.898;2023-01-05T06:37:28;4.33;;;2.00;;
19519;SDS011;9904;52.246;20.898;2023-01-05T06:39:54;3.80;;;1.73;;
19519;SDS011;9904;52.246;20.898;2023-01-05T06:42:21;4.47;;;1.70;;
19519;SDS011;9904;52.246;20.898;2023-01-05T06:44:49;7.50;;;2.23;;
19519;SDS011;9904;52.246;20.898;2023-01-05T06:47:15;6.53;;;2.10;;
19519;SDS011;9904;52.246;20.898;2023-01-05T06:49:42;5.43;;;1.83;;
19519;SDS011;9904;52.246;20.898;2023-01-05T06:52:08;4.07;;;2.00;;
19519;SDS011;9904;52.246;20.898;2023-01-05T06:54:41;7.40;;;2.30;;
19519;SDS011;9904;52.246;20.898;2023-01-05T06:57:08;4.47;;;2.07;;
19519;SDS011;9904;52.246;20.898;2023-01-05T06:59:35;8.80;;;2.80;;
19519;SDS011;9904;52.246;20.898;2023-01-05T07:02:01;6.17;;;3.00;;
19519;SDS011;9904;52.246;20.898;2023-01-05T07:04:28;11.40;;;3.40;;
19519;SDS011;9904;52.246;20.898;2023-01-05T07:06:55;8.50;;;3.33;;
19519;SDS011;9904;52.246;20.898;2023-01-05T07:09:22;7.00;;;4.10;;
19519;SDS011;9904;52.246;20.898;2023-01-05T07:11:48;11.77;;;4.33;;
19519;SDS011;9904;52.246;20.898;2023-01-05T07:14:15;9.57;;;4.40;;
19519;SDS011;9904;52.246;20.898;2023-01-05T07:16:42;9.40;;;4.47;;
19519;SDS011;9904;52.246;20.898;2023-01-05T07:19:09;9.93;;;4.63;;
19519;SDS011;9904;52.246;20.898;2023-01-05T07:21:35;12.73;;;5.50;;
19519;SDS011;9904;52.246;20.898;2023-01-05T07:24:02;13.27;;;5.03;;
19519;SDS011;9904;52.246;20.898;2023-01-05T07:26:29;14.70;;;6.20;;
19519;SDS011;9904;52.246;20.898;2023-01-05T07:28:55;9.70;;;5.90;;
19519;SDS011;9904;52.246;20.898;2023-01-05T07:31:23;12.43;;;5.60;;
19519;SDS011;9904;52.246;20.898;2023-01-05T07:33:50;11.03;;;5.67;;
19519;SDS011;9904;52.246;20.898;2023-01-05T07:36:16;10.20;;;5.60;;
19519;SDS011;9904;52.246;20.898;2023-01-05T07:38:43;11.30;;;5.40;;
19519;SDS011;9904;52.246;20.898;2023-01-05T07:41:10;13.57;;;5.87;;
19519;SDS011;9904;52.246;20.898;2023-01-05T07:43:36;8.60;;;4.57;;
19519;SDS011;9904;52.246;20.898;2023-01-05T07:46:03;11.30;;;5.40;;
19519;SDS011;9904;52.246;20.898;2023-01-05T07:48:30;11.83;;;5.33;;
19519;SDS011;9904;52.246;20.898;2023-01-05T07:51:03;12.30;;;5.10;;
19519;SDS011;9904;52.246;20.898;2023-01-05T07:53:31;12.83;;;5.30;;
19519;SDS011;9904;52.246;20.898;2023-01-05T07:56:09;11.33;;;4.60;;
19519;SDS011;9904;52.246;20.898;2023-01-05T07:58:36;9.43;;;4.90;;
19519;SDS011;9904;52.246;20.898;2023-01-05T08:01:07;9.70;;;4.73;;
19519;SDS011;9904;52.246;20.898;2023-01-05T08:03:35;10.60;;;5.10;;
19519;SDS011;9904;52.246;20.898;2023-01-05T08:06:05;9.73;;;4.60;;
19519;SDS011;9904;52.246;20.898;2023-01-05T08:08:37;10.37;;;4.90;;
19519;SDS011;9904;52.246;20.898;2023-01-05T08:11:04;10.63;;;4.20;;
19519;SDS011;9904;52.246;20.898;2023-01-05T08:13:32;11.23;;;4.47;;
19519;SDS011;9904;52.246;20.898;2023-01-05T08:16:21;12.43;;;4.57;;
19519;SDS011;9904;52.246;20.898;2023-01-05T08:18:50;9.53;;;4.60;;
19519;SDS011;9904;52.246;20.898;2023-01-05T08:21:16;12.67;;;5.00;;
19519;SDS011;9904;52.246;20.898;2023-01-05T08:23:45;10.47;;;4.00;;
19519;SDS011;9904;52.246;20.898;2023-01-05T08:26:13;10.33;;;4.60;;
19519;SDS011;9904;52.246;20.898;2023-01-05T08:28:42;10.20;;;4.43;;
19519;SDS011;9904;52.246;20.898;2023-01-05T08:31:10;9.70;;;4.83;;
19519;SDS011;9904;52.246;20.898;2023-01-05T08:33:39;15.77;;;4.20;;
19519;SDS011;9904;52.246;20.898;2023-01-05T08:36:08;11.43;;;4.20;;
19519;SDS011;9904;52.246;20.898;2023-01-05T08:38:39;8.70;;;3.87;;
19519;SDS011;9904;52.246;20.898;2023-01-05T08:41:16;9.07;;;3.50;;
19519;SDS011;9904;52.246;20.898;2023-01-05T08:44:04;10.23;;;4.20;;
19519;SDS011;9904;52.246;20.898;2023-01-05T08:46:40;7.33;;;3.80;;
19519;SDS011;9904;52.246;20.898;2023-01-05T08:49:07;9.57;;;3.93;;
19519;SDS011;9904;52.246;20.898;2023-01-05T08:51:35;10.07;;;4.50;;
19519;SDS011;9904;52.246;20.898;2023-01-05T08:54:02;10.67;;;4.93;;
19519;SDS011;9904;52.246;20.898;2023-01-05T08:56:29;12.07;;;5.03;;
19519;SDS011;9904;52.246;20.898;2023-01-05T08:59:05;10.50;;;5.23;;
19519;SDS011;9904;52.246;20.898;2023-01-05T09:01:32;15.57;;;6.00;;
19519;SDS011;9904;52.246;20.898;2023-01-05T09:03:58;15.67;;;6.00;;
19519;SDS011;9904;52.246;20.898;2023-01-05T09:06:26;11.53;;;3.70;;
19519;SDS011;9904;52.246;20.898;2023-01-05T09:08:52;10.20;;;3.50;;
19519;SDS011;9904;52.246;20.898;2023-01-05T09:11:20;7.23;;;2.67;;
19519;SDS011;9904;52.246;20.898;2023-01-05T09:13:49;9.87;;;2.40;;
19519;SDS011;9904;52.246;20.898;2023-01-05T09:16:18;9.43;;;2.03;;
19519;SDS011;9904;52.246;20.898;2023-01-05T09:19:07;5.33;;;1.70;;
19519;SDS011;9904;52.246;20.898;2023-01-05T09:21:34;7.03;;;1.97;;
19519;SDS011;9904;52.246;20.898;2023-01-05T09:24:01;11.67;;;2.13;;
19519;SDS011;9904;52.246;20.898;2023-01-05T09:26:28;8.10;;;2.57;;
19519;SDS011;9904;52.246;20.898;2023-01-05T09:28:55;8.67;;;2.33;;
19519;SDS011;9904;52.246;20.898;2023-01-05T09:31:22;6.70;;;1.87;;
19519;SDS011;9904;52.246;20.898;2023-01-05T09:33:49;7.47;;;2.13;;
19519;SDS011;9904;52.246;20.898;2023-01-05T09:36:17;5.60;;;2.30;;
19519;SDS011;9904;52.246;20.898;2023-01-05T09:38:53;6.63;;;2.70;;
19519;SDS011;9904;52.246;20.898;2023-01-05T09:41:25;6.70;;;2.17;;
19519;SDS011;9904;52.246;20.898;2023-01-05T09:43:54;4.43;;;1.77;;
19519;SDS011;9904;52.246;20.898;2023-01-05T09:46:25;6.33;;;1.90;;
19519;SDS011;9904;52.246;20.898;2023-01-05T09:48:55;7.47;;;1.97;;
19519;SDS011;9904;52.246;20.898;2023-01-05T09:51:24;3.53;;;1.70;;
19519;SDS011;9904;52.246;20.898;2023-01-05T09:53:52;3.17;;;1.73;;
19519;SDS011;9904;52.246;20.898;2023-01-05T09:56:26;8.53;;;1.73;;
19519;SDS011;9904;52.246;20.898;2023-01-05T09:59:20;5.30;;;1.80;;
19519;SDS011;9904;52.246;20.898;2023-01-05T10:02:01;6.07;;;1.73;;
19519;SDS011;9904;52.246;20.898;2023-01-05T10:04:31;6.00;;;1.87;;
19519;SDS011;9904;52.246;20.898;2023-01-05T10:07:00;6.37;;;2.40;;
19519;SDS011;9904;52.246;20.898;2023-01-05T10:09:30;10.90;;;2.63;;
19519;SDS011;9904;52.246;20.898;2023-01-05T10:14:55;4.93;;;2.20;;
19519;SDS011;9904;52.246;20.898;2023-01-05T10:17:25;8.80;;;2.40;;
19519;SDS011;9904;52.246;20.898;2023-01-05T10:20:12;11.00;;;2.87;;
19519;SDS011;9904;52.246;20.898;2023-01-05T10:25:48;7.57;;;2.40;;
19519;SDS011;9904;52.246;20.898;2023-01-05T10:31:20;7.80;;;2.17;;
19519;SDS011;9904;52.246;20.898;2023-01-05T10:45:11;5.63;;;2.77;;
19519;SDS011;9904;52.246;20.898;2023-01-05T10:47:40;12.40;;;3.37;;
19519;SDS011;9904;52.246;20.898;2023-01-05T10:53:07;10.33;;;3.40;;
19519;SDS011;9904;52.246;20.898;2023-01-05T10:55:47;10.87;;;3.00;;
19519;SDS011;9904;52.246;20.898;2023-01-05T11:00:49;8.53;;;2.80;;
19519;SDS011;9904;52.246;20.898;2023-01-05T11:03:16;9.43;;;3.60;;
19519;SDS011;9904;52.246;20.898;2023-01-05T11:05:44;6.80;;;3.10;;
19519;SDS011;9904;52.246;20.898;2023-01-05T11:08:13;10.50;;;2.97;;
19519;SDS011;9904;52.246;20.898;2023-01-05T11:10:52;8.73;;;3.10;;
19519;SDS011;9904;52.246;20.898;2023-01-05T11:13:26;10.30;;;3.13;;
19519;SDS011;9904;52.246;20.898;2023-01-05T11:15:55;7.50;;;2.53;;
19519;SDS011;9904;52.246;20.898;2023-01-05T11:18:26;10.17;;;3.00;;
19519;SDS011;9904;52.246;20.898;2023-01-05T11:21:08;14.47;;;3.10;;
19519;SDS011;9904;52.246;20.898;2023-01-05T11:23:46;8.30;;;3.00;;
19519;SDS011;9904;52.246;20.898;2023-01-05T11:28:56;8.80;;;2.70;;
19519;SDS011;9904;52.246;20.898;2023-01-05T11:36:56;14.57;;;4.00;;
19519;SDS011;9904;52.246;20.898;2023-01-05T11:39:40;13.13;;;3.37;;
19519;SDS011;9904;52.246;20.898;2023-01-05T11:52:51;8.67;;;2.17;;
19519;SDS011;9904;52.246;20.898;2023-01-05T11:55:26;8.73;;;2.10;;
19519;SDS011;9904;52.246;20.898;2023-01-05T12:03:45;7.27;;;2.13;;
19519;SDS011;9904;52.246;20.898;2023-01-05T12:09:23;10.80;;;2.47;;
19519;SDS011;9904;52.246;20.898;2023-01-05T12:14:46;12.27;;;2.30;;
19519;SDS011;9904;52.246;20.898;2023-01-05T12:17:22;8.37;;;2.27;;
19519;SDS011;9904;52.246;20.898;2023-01-05T12:20:11;7.67;;;2.00;;
19519;SDS011;9904;52.246;20.898;2023-01-05T12:23:14;6.37;;;2.27;;
19519;SDS011;9904;52.246;20.898;2023-01-05T12:29:01;8.33;;;2.03;;
19519;SDS011;9904;52.246;20.898;2023-01-05T12:35:09;10.90;;;2.97;;
19519;SDS011;9904;52.246;20.898;2023-01-05T12:40:51;8.80;;;2.20;;
19519;SDS011;9904;52.246;20.898;2023-01-05T12:43:33;7.13;;;2.23;;
19519;SDS011;9904;52.246;20.898;2023-01-05T12:49:07;7.80;;;1.83;;
19519;SDS011;9904;52.246;20.898;2023-01-05T12:52:24;9.47;;;2.17;;
19519;SDS011;9904;52.246;20.898;2023-01-05T12:54:43;7.33;;;1.93;;
19519;SDS011;9904;52.246;20.898;2023-01-05T12:57:37;11.50;;;2.10;;
19519;SDS011;9904;52.246;20.898;2023-01-05T13:00:07;10.53;;;2.30;;
19519;SDS011;9904;52.246;20.898;2023-01-05T13:02:40;9.70;;;2.80;;
19519;SDS011;9904;52.246;20.898;2023-01-05T13:10:43;8.67;;;2.33;;
19519;SDS011;9904;52.246;20.898;2023-01-05T13:13:16;7.87;;;2.37;;
19519;SDS011;9904;52.246;20.898;2023-01-05T13:18:19;8.37;;;2.23;;
19519;SDS011;9904;52.246;20.898;2023-01-05T13:20:53;10.67;;;2.27;;
19519;SDS011;9904;52.246;20.898;2023-01-05T13:26:03;12.93;;;2.83;;
19519;SDS011;9904;52.246;20.898;2023-01-05T13:28:31;8.43;;;2.50;;
19519;SDS011;9904;52.246;20.898;2023-01-05T13:34:16;9.77;;;2.23;;
19519;SDS011;9904;52.246;20.898;2023-01-05T13:51:54;8.60;;;1.90;;
19519;SDS011;9904;52.246;20.898;2023-01-05T13:57:23;12.03;;;2.40;;
19519;SDS011;9904;52.246;20.898;2023-01-05T13:59:54;11.00;;;2.50;;
19519;SDS011;9904;52.246;20.898;2023-01-05T14:02:34;10.90;;;2.80;;
19519;SDS011;9904;52.246;20.898;2023-01-05T14:05:08;10.53;;;2.40;;
19519;SDS011;9904;52.246;20.898;2023-01-05T14:08:00;8.97;;;1.90;;
19519;SDS011;9904;52.246;20.898;2023-01-05T14:10:29;8.03;;;1.93;;
19519;SDS011;9904;52.246;20.898;2023-01-05T14:12:57;9.83;;;2.50;;
19519;SDS011;9904;52.246;20.898;2023-01-05T14:15:32;8.40;;;2.30;;
19519;SDS011;9904;52.246;20.898;2023-01-05T14:18:03;7.50;;;1.67;;
19519;SDS011;9904;52.246;20.898;2023-01-05T14:20:35;6.30;;;2.10;;
19519;SDS011;9904;52.246;20.898;2023-01-05T14:24:24;11.07;;;2.00;;
19519;SDS011;9904;52.246;20.898;2023-01-05T14:26:06;7.47;;;1.80;;
19519;SDS011;9904;52.246;20.898;2023-01-05T14:33:46;10.70;;;2.10;;
19519;SDS011;9904;52.246;20.898;2023-01-05T14:41:43;10.83;;;2.73;;
19519;SDS011;9904;52.246;20.898;2023-01-05T14:44:39;12.63;;;2.50;;
19519;SDS011;9904;52.246;20.898;2023-01-05T14:47:15;15.10;;;2.70;;
19519;SDS011;9904;52.246;20.898;2023-01-05T14:49:54;11.03;;;3.30;;
19519;SDS011;9904;52.246;20.898;2023-01-05T14:55:21;13.17;;;2.60;;
19519;SDS011;9904;52.246;20.898;2023-01-05T15:03:52;10.70;;;3.30;;
19519;SDS011;9904;52.246;20.898;2023-01-05T15:09:07;10.90;;;3.27;;
19519;SDS011;9904;52.246;20.898;2023-01-05T15:23:36;10.07;;;3.00;;
19519;SDS011;9904;52.246;20.898;2023-01-05T15:29:04;7.90;;;2.93;;
19519;SDS011;9904;52.246;20.898;2023-01-05T15:31:39;8.83;;;2.37;;
19519;SDS011;9904;52.246;20.898;2023-01-05T15:36:58;8.33;;;2.60;;
19519;SDS011;9904;52.246;20.898;2023-01-05T15:39:32;6.80;;;2.40;;
19519;SDS011;9904;52.246;20.898;2023-01-05T15:42:05;6.90;;;2.33;;
19519;SDS011;9904;52.246;20.898;2023-01-05T15:44:35;7.97;;;2.27;;
19519;SDS011;9904;52.246;20.898;2023-01-05T15:47:08;6.13;;;2.40;;
19519;SDS011;9904;52.246;20.898;2023-01-05T15:49:36;9.30;;;2.40;;
19519;SDS011;9904;52.246;20.898;2023-01-05T15:52:03;9.03;;;2.53;;
19519;SDS011;9904;52.246;20.898;2023-01-05T15:54:31;6.87;;;2.40;;
19519;SDS011;9904;52.246;20.898;2023-01-05T15:57:01;9.53;;;3.77;;
19519;SDS011;9904;52.246;20.898;2023-01-05T15:59:38;8.40;;;3.73;;
19519;SDS011;9904;52.246;20.898;2023-01-05T16:07:39;14.63;;;4.07;;
19519;SDS011;9904;52.246;20.898;2023-01-05T16:10:50;10.57;;;3.87;;
19519;SDS011;9904;52.246;20.898;2023-01-05T16:13:02;7.50;;;3.23;;
19519;SDS011;9904;52.246;20.898;2023-01-05T16:15:33;6.17;;;2.07;;
19519;SDS011;9904;52.246;20.898;2023-01-05T16:18:01;5.97;;;2.10;;
19519;SDS011;9904;52.246;20.898;2023-01-05T16:20:29;3.40;;;1.97;;
19519;SDS011;9904;52.246;20.898;2023-01-05T16:23:02;6.77;;;2.20;;
19519;SDS011;9904;52.246;20.898;2023-01-05T16:25:53;5.87;;;1.93;;
19519;SDS011;9904;52.246;20.898;2023-01-05T16:28:22;5.20;;;1.77;;
19519;SDS011;9904;52.246;20.898;2023-01-05T16:30:50;5.43;;;2.17;;
19519;SDS011;9904;52.246;20.898;2023-01-05T16:33:31;6.43;;;2.67;;
19519;SDS011;9904;52.246;20.898;2023-01-05T16:36:05;4.63;;;1.77;;
19519;SDS011;9904;52.246;20.898;2023-01-05T16:38:33;2.97;;;1.43;;
19519;SDS011;9904;52.246;20.898;2023-01-05T16:41:10;4.10;;;1.50;;
19519;SDS011;9904;52.246;20.898;2023-01-05T16:46:23;5.67;;;1.83;;
19519;SDS011;9904;52.246;20.898;2023-01-05T16:59:02;3.13;;;1.60;;
19519;SDS011;9904;52.246;20.898;2023-01-05T17:01:42;3.77;;;1.60;;
19519;SDS011;9904;52.246;20.898;2023-01-05T17:04:10;3.53;;;1.30;;
19519;SDS011;9904;52.246;20.898;2023-01-05T17:06:37;2.73;;;1.43;;
19519;SDS011;9904;52.246;20.898;2023-01-05T17:09:06;5.20;;;1.90;;
19519;SDS011;9904;52.246;20.898;2023-01-05T17:11:38;4.33;;;1.60;;
19519;SDS011;9904;52.246;20.898;2023-01-05T17:14:05;6.33;;;2.13;;
19519;SDS011;9904;52.246;20.898;2023-01-05T17:16:32;5.43;;;1.80;;
19519;SDS011;9904;52.246;20.898;2023-01-05T17:18:58;2.40;;;1.30;;
19519;SDS011;9904;52.246;20.898;2023-01-05T17:21:27;2.83;;;1.60;;
19519;SDS011;9904;52.246;20.898;2023-01-05T17:23:57;1.80;;;1.20;;
19519;SDS011;9904;52.246;20.898;2023-01-05T17:26:34;4.23;;;1.90;;
19519;SDS011;9904;52.246;20.898;2023-01-05T17:29:03;4.87;;;1.33;;
19519;SDS011;9904;52.246;20.898;2023-01-05T17:31:30;4.43;;;2.00;;
19519;SDS011;9904;52.246;20.898;2023-01-05T17:33:57;5.13;;;1.60;;
19519;SDS011;9904;52.246;20.898;2023-01-05T17:36:25;4.30;;;1.77;;
19519;SDS011;9904;52.246;20.898;2023-01-05T17:38:53;3.17;;;1.60;;
19519;SDS011;9904;52.246;20.898;2023-01-05T17:41:20;3.97;;;1.90;;
19519;SDS011;9904;52.246;20.898;2023-01-05T17:43:46;2.80;;;1.80;;
19519;SDS011;9904;52.246;20.898;2023-01-05T17:46:17;3.80;;;2.17;;
19519;SDS011;9904;52.246;20.898;2023-01-05T17:48:48;3.30;;;2.07;;
19519;SDS011;9904;52.246;20.898;2023-01-05T17:51:17;3.77;;;2.10;;
19519;SDS011;9904;52.246;20.898;2023-01-05T17:53:45;6.17;;;2.00;;
19519;SDS011;9904;52.246;20.898;2023-01-05T17:56:12;3.57;;;1.70;;
19519;SDS011;9904;52.246;20.898;2023-01-05T17:58:38;2.70;;;1.90;;